Time;durP1;ratioP1;P1;durP2;ratioP2;P2;SDS_P1;SDS_P2;PMS_P1;PMS_P2;Temp;Humidity;BMP_temperature;BMP_pressure;BME280_temperature;BME280_humidity;BME280_pressure;Samples;Min_cycle;Max_cycle;Signal;HPM_P1;HPM_P2
2023/04/22 00:01:43;;;;;;;4.70;3.45;;;;;;;;;;6096095;23;20010;-70
2023/04/22 00:04:10;;;;;;;6.75;3.70;;;;;;;;;;6123014;23;20304;-70
2023/04/22 00:06:35;;;;;;;4.75;4.10;;;;;;;;;;6122678;23;20116;-71
2023/04/22 00:09:02;;;;;;;4.68;3.85;;;;;;;;;;6122162;23;20486;-69
2023/04/22 00:11:28;;;;;;;4.05;3.65;;;;;;;;;;6121939;23;20021;-71
2023/04/22 00:13:54;;;;;;;8.93;3.72;;;;;;;;;;6122021;23;20017;-71
2023/04/22 00:16:20;;;;;;;10.57;3.90;;;;;;;;;;6120768;23;20473;-71
2023/04/22 00:18:46;;;;;;;5.18;3.67;;;;;;;;;;6120537;23;20046;-71
2023/04/22 00:21:13;;;;;;;4.95;3.63;;;;;;;;;;6120022;23;20398;-70
2023/04/22 00:23:38;;;;;;;4.10;3.40;;;;;;;;;;6119864;23;20025;-70
2023/04/22 00:26:04;;;;;;;5.05;3.88;;;;;;;;;;6120315;23;20029;-71
2023/04/22 00:28:30;;;;;;;4.93;4.05;;;;;;;;;;6070073;23;20052;-70
2023/04/22 00:30:57;;;;;;;7.47;3.80;;;;;;;;;;6094175;23;20363;-70
2023/04/22 00:33:23;;;;;;;4.22;3.83;;;;;;;;;;6120060;23;20025;-70
2023/04/22 00:35:49;;;;;;;4.93;3.38;;;;;;;;;;6095299;23;20018;-70
2023/04/22 00:38:15;;;;;;;3.70;3.40;;;;;;;;;;6093965;23;20386;-70
2023/04/22 00:40:41;;;;;;;4.20;3.80;;;;;;;;;;6094187;23;20459;-69
2023/04/22 00:43:07;;;;;;;9.65;3.65;;;;;;;;;;6120615;23;20010;-69
2023/04/22 00:45:35;;;;;;;4.15;3.83;;;;;;;;;;6120368;23;20069;-70
2023/04/22 00:48:01;;;;;;;3.85;3.55;;;;;;;;;;6120948;23;20320;-70
2023/04/22 00:50:27;;;;;;;6.68;3.88;;;;;;;;;;6093251;23;20025;-69
2023/04/22 00:52:54;;;;;;;9.13;3.53;;;;;;;;;;6072988;23;20045;-70
2023/04/22 00:55:21;;;;;;;4.63;3.75;;;;;;;;;;6121901;23;20021;-70
2023/04/22 00:57:48;;;;;;;6.30;4.07;;;;;;;;;;6095988;23;20097;-70
2023/04/22 01:00:14;;;;;;;6.43;3.30;;;;;;;;;;6070499;23;20025;-70
2023/04/22 01:02:40;;;;;;;9.82;4.63;;;;;;;;;;6070081;23;20439;-70
2023/04/22 01:05:08;;;;;;;5.68;3.67;;;;;;;;;;6095597;23;20097;-68
2023/04/22 01:07:35;;;;;;;5.38;3.60;;;;;;;;;;6098244;23;20020;-71
2023/04/22 01:10:01;;;;;;;8.02;3.90;;;;;;;;;;6097763;23;20018;-70
2023/04/22 01:12:30;;;;;;;7.07;3.63;;;;;;;;;;6120056;23;20013;-70
2023/04/22 01:14:55;;;;;;;6.93;3.50;;;;;;;;;;6069735;23;20014;-70
2023/04/22 01:17:23;;;;;;;13.52;3.75;;;;;;;;;;6094848;23;20110;-70
2023/04/22 01:19:51;;;;;;;3.28;3.08;;;;;;;;;;6120055;23;20017;-70
2023/04/22 01:22:17;;;;;;;4.10;3.70;;;;;;;;;;6070856;23;20069;-71
2023/04/22 01:24:43;;;;;;;9.52;3.50;;;;;;;;;;6093653;23;20026;-70
2023/04/22 01:27:09;;;;;;;6.00;3.45;;;;;;;;;;6070246;23;20061;-71
2023/04/22 01:29:36;;;;;;;6.97;3.75;;;;;;;;;;6095912;23;20013;-71
2023/04/22 01:32:02;;;;;;;3.42;2.95;;;;;;;;;;6120147;23;20064;-70
2023/04/22 01:34:29;;;;;;;4.32;3.17;;;;;;;;;;6069821;23;20345;-70
2023/04/22 01:36:55;;;;;;;4.47;3.10;;;;;;;;;;6121006;23;20022;-70
2023/04/22 01:39:21;;;;;;;4.93;3.45;;;;;;;;;;6119789;23;20368;-71
2023/04/22 01:41:47;;;;;;;6.30;3.17;;;;;;;;;;6069808;23;20065;-70
2023/04/22 01:44:13;;;;;;;5.03;3.58;;;;;;;;;;6046239;23;20053;-71
2023/04/22 01:46:39;;;;;;;5.68;3.20;;;;;;;;;;6119938;23;20029;-70
2023/04/22 01:49:05;;;;;;;3.85;3.15;;;;;;;;;;6094087;23;20013;-71
2023/04/22 01:51:31;;;;;;;4.93;3.45;;;;;;;;;;6069035;23;20028;-71
2023/04/22 01:53:57;;;;;;;5.82;3.60;;;;;;;;;;6120171;23;20458;-71
2023/04/22 01:56:23;;;;;;;5.88;3.75;;;;;;;;;;6120947;23;20100;-72
2023/04/22 01:58:50;;;;;;;7.93;4.50;;;;;;;;;;6046834;23;20029;-71
2023/04/22 02:01:16;;;;;;;6.45;5.30;;;;;;;;;;6093729;23;20486;-71
2023/04/22 02:03:42;;;;;;;18.98;13.07;;;;;;;;;;6120128;23;20064;-71
2023/04/22 02:06:09;;;;;;;29.02;12.85;;;;;;;;;;6093563;23;20131;-70
2023/04/22 02:08:37;;;;;;;15.75;10.82;;;;;;;;;;6093350;23;20097;-70
2023/04/22 02:11:03;;;;;;;23.15;16.13;;;;;;;;;;6093082;23;20451;-71
2023/04/22 02:13:36;;;;;;;24.52;13.80;;;;;;;;;;6094026;23;20617;-71
2023/04/22 02:16:02;;;;;;;26.48;14.45;;;;;;;;;;6119470;23;20404;-71
2023/04/22 02:18:31;;;;;;;27.27;14.07;;;;;;;;;;6093485;23;20052;-71
2023/04/22 02:20:57;;;;;;;16.17;10.20;;;;;;;;;;6119311;23;20014;-70
2023/04/22 02:23:23;;;;;;;13.10;9.70;;;;;;;;;;6093334;23;20017;-71
2023/04/22 02:25:49;;;;;;;9.45;8.25;;;;;;;;;;6120068;23;20295;-69
2023/04/22 02:28:20;;;;;;;14.18;7.70;;;;;;;;;;6093324;23;20009;-71
2023/04/22 02:30:46;;;;;;;13.32;8.88;;;;;;;;;;6119392;23;20057;-70
2023/04/22 02:33:13;;;;;;;12.98;8.77;;;;;;;;;;6119146;23;20009;-72
2023/04/22 02:35:39;;;;;;;15.48;10.85;;;;;;;;;;6045582;23;20744;-71
2023/04/22 02:38:05;;;;;;;14.43;11.60;;;;;;;;;;6119706;23;20132;-71
2023/04/22 02:40:31;;;;;;;21.73;14.20;;;;;;;;;;6118307;23;20021;-71
2023/04/22 02:42:57;;;;;;;33.13;16.80;;;;;;;;;;6118810;23;20065;-71
2023/04/22 02:45:23;;;;;;;42.92;24.05;;;;;;;;;;6093450;23;20022;-70
2023/04/22 02:47:49;;;;;;;33.65;16.95;;;;;;;;;;6119282;23;20517;-70
2023/04/22 02:50:15;;;;;;;33.15;16.85;;;;;;;;;;6045268;23;20021;-71
2023/04/22 02:52:41;;;;;;;27.48;15.48;;;;;;;;;;6092878;23;20120;-71
2023/04/22 02:55:07;;;;;;;24.92;15.48;;;;;;;;;;6094162;23;20246;-71
2023/04/22 02:57:33;;;;;;;23.58;14.70;;;;;;;;;;6093134;23;20014;-71
2023/04/22 02:59:59;;;;;;;19.05;13.40;;;;;;;;;;6094911;23;20030;-71
2023/04/22 03:02:26;;;;;;;16.95;12.32;;;;;;;;;;6069919;23;20028;-70
2023/04/22 03:05:05;;;;;;;17.70;11.55;;;;;;;;;;6094073;23;20378;-71
2023/04/22 03:07:31;;;;;;;23.10;11.63;;;;;;;;;;6094524;23;20092;-73
2023/04/22 03:09:58;;;;;;;14.93;10.10;;;;;;;;;;6096496;23;20096;-72
2023/04/22 03:12:24;;;;;;;15.57;10.95;;;;;;;;;;6096049;23;20064;-70
2023/04/22 03:14:51;;;;;;;18.60;10.48;;;;;;;;;;6094981;23;20358;-71
2023/04/22 03:17:19;;;;;;;18.15;10.27;;;;;;;;;;6095191;23;20022;-71
2023/04/22 03:19:46;;;;;;;18.80;10.30;;;;;;;;;;6071769;23;20028;-71
2023/04/22 03:22:13;;;;;;;16.15;9.75;;;;;;;;;;6095541;23;20014;-71
2023/04/22 03:24:39;;;;;;;17.75;11.60;;;;;;;;;;6120253;23;20029;-71
2023/04/22 03:27:08;;;;;;;17.70;11.20;;;;;;;;;;6095376;23;20010;-72
2023/04/22 03:29:35;;;;;;;17.17;11.88;;;;;;;;;;6121301;23;20013;-72
2023/04/22 03:32:01;;;;;;;16.17;10.55;;;;;;;;;;6047145;23;20078;-72
2023/04/22 03:34:27;;;;;;;21.92;13.45;;;;;;;;;;6094929;23;20105;-71
2023/04/22 03:36:53;;;;;;;22.25;12.98;;;;;;;;;;6122090;23;20104;-73
2023/04/22 03:39:21;;;;;;;23.13;12.80;;;;;;;;;;6072473;23;20006;-71
2023/04/22 03:41:48;;;;;;;21.52;14.23;;;;;;;;;;6095148;23;20331;-72
2023/04/22 03:44:14;;;;;;;25.90;13.45;;;;;;;;;;6094771;23;20022;-72
2023/04/22 03:46:40;;;;;;;27.73;16.17;;;;;;;;;;6094070;23;20010;-71
2023/04/22 03:49:30;;;;;;;27.75;17.75;;;;;;;;;;6065165;23;20044;-73
2023/04/22 03:51:56;;;;;;;28.13;17.35;;;;;;;;;;6071011;23;20018;-71
2023/04/22 03:54:24;;;;;;;34.58;17.05;;;;;;;;;;6094951;23;20101;-72
2023/04/22 03:56:51;;;;;;;31.10;18.17;;;;;;;;;;6095899;23;20010;-71
2023/04/22 03:59:20;;;;;;;36.00;18.52;;;;;;;;;;6120671;23;20029;-72
2023/04/22 04:01:46;;;;;;;36.90;19.92;;;;;;;;;;6070147;23;20022;-72
2023/04/22 04:04:15;;;;;;;37.78;19.48;;;;;;;;;;6071861;23;20022;-72
2023/04/22 04:06:48;;;;;;;31.20;16.95;;;;;;;;;;6095307;23;20010;-72
2023/04/22 04:09:14;;;;;;;32.55;17.10;;;;;;;;;;6121824;23;20014;-72
2023/04/22 04:11:40;;;;;;;41.58;20.33;;;;;;;;;;6094775;23;20036;-73
2023/04/22 04:14:08;;;;;;;36.90;19.23;;;;;;;;;;6071217;23;20024;-71
2023/04/22 04:16:41;;;;;;;38.60;17.92;;;;;;;;;;6094011;23;20033;-72
2023/04/22 04:19:13;;;;;;;38.50;17.55;;;;;;;;;;6094978;23;20481;-72
2023/04/22 04:21:41;;;;;;;41.80;18.83;;;;;;;;;;6093957;23;20106;-71
2023/04/22 04:24:07;;;;;;;29.52;17.02;;;;;;;;;;6070657;23;20025;-72
2023/04/22 04:26:38;;;;;;;;;;;;;;;;;;6071261;23;20469;-72
2023/04/22 04:29:12;;;;;;;28.90;13.63;;;;;;;;;;6089912;23;19909;-72
2023/04/22 04:31:41;;;;;;;32.42;15.43;;;;;;;;;;6075787;23;20046;-72
2023/04/22 04:34:07;;;;;;;29.48;12.98;;;;;;;;;;6132317;23;20386;-72
2023/04/22 04:36:38;;;;;;;24.23;12.48;;;;;;;;;;6108612;23;20014;-73
2023/04/22 04:39:17;;;;;;;22.35;11.70;;;;;;;;;;6111452;23;20014;-72
2023/04/22 04:41:44;;;;;;;27.00;13.02;;;;;;;;;;6102674;23;20549;-70
2023/04/22 04:44:11;;;;;;;31.00;12.85;;;;;;;;;;6069965;23;20026;-72
2023/04/22 04:46:38;;;;;;;31.02;14.90;;;;;;;;;;6092726;23;20458;-74
2023/04/22 04:49:05;;;;;;;35.17;18.08;;;;;;;;;;6093650;23;20018;-74
2023/04/22 04:51:37;;;;;;;46.83;18.17;;;;;;;;;;6091448;23;20458;-73
2023/04/22 04:54:03;;;;;;;45.78;19.67;;;;;;;;;;6093440;23;20014;-74
2023/04/22 04:56:34;;;;;;;46.30;19.48;;;;;;;;;;6092705;23;20070;-75
2023/04/22 04:59:01;;;;;;;39.65;18.10;;;;;;;;;;6091649;23;20041;-74
2023/04/22 05:01:28;;;;;;;34.90;15.80;;;;;;;;;;6093031;23;20130;-75
2023/04/22 05:03:58;;;;;;;30.35;16.17;;;;;;;;;;6067867;23;20021;-75
2023/04/22 05:06:25;;;;;;;26.73;14.43;;;;;;;;;;6093259;23;20450;-74
2023/04/22 05:08:56;;;;;;;31.63;15.48;;;;;;;;;;6091652;23;20022;-73
2023/04/22 05:11:22;;;;;;;24.60;13.95;;;;;;;;;;6092500;23;20545;-74
2023/04/22 05:13:50;;;;;;;22.92;12.77;;;;;;;;;;6093834;23;20093;-74
2023/04/22 05:16:22;;;;;;;28.92;13.55;;;;;;;;;;6070621;23;20013;-74
2023/04/22 05:18:48;;;;;;;23.73;13.52;;;;;;;;;;6093747;23;20065;-75
2023/04/22 05:21:15;;;;;;;26.75;14.95;;;;;;;;;;6092962;23;20407;-75
2023/04/22 05:23:43;;;;;;;34.20;13.70;;;;;;;;;;6094727;23;20032;-74
2023/04/22 05:26:08;;;;;;;25.33;12.48;;;;;;;;;;6072930;23;20018;-75
2023/04/22 05:28:38;;;;;;;17.37;11.17;;;;;;;;;;6073202;23;20018;-75
2023/04/22 05:31:05;;;;;;;21.70;10.02;;;;;;;;;;6094316;23;20126;-75
2023/04/22 05:33:31;;;;;;;19.42;10.45;;;;;;;;;;6101605;23;20017;-75
2023/04/22 05:35:58;;;;;;;18.75;9.43;;;;;;;;;;6106957;23;20014;-74
2023/04/22 05:38:24;;;;;;;9.10;6.90;;;;;;;;;;6077184;23;20065;-75
2023/04/22 05:40:51;;;;;;;7.97;5.00;;;;;;;;;;6095458;23;20025;-76
2023/04/22 05:43:18;;;;;;;15.35;6.50;;;;;;;;;;6097098;23;20080;-80
2023/04/22 05:45:56;;;;;;;11.65;5.95;;;;;;;;;;6095527;23;20014;-77
2023/04/22 05:48:22;;;;;;;11.35;6.97;;;;;;;;;;6130390;23;20036;-76
2023/04/22 05:51:00;;;;;;;14.88;7.20;;;;;;;;;;6088912;23;20017;-76
2023/04/22 05:53:28;;;;;;;12.38;5.03;;;;;;;;;;6090511;23;20018;-76
2023/04/22 05:55:55;;;;;;;12.10;6.30;;;;;;;;;;6111493;23;20021;-77
2023/04/22 05:58:22;;;;;;;13.18;5.88;;;;;;;;;;6113718;23;20442;-76
2023/04/22 06:01:08;;;;;;;14.80;6.10;;;;;;;;;;6085621;23;20121;-77
2023/04/22 06:03:56;;;;;;;12.98;6.80;;;;;;;;;;6094578;23;20022;-78
2023/04/22 06:06:23;;;;;;;11.77;7.15;;;;;;;;;;6095191;23;20041;-77
2023/04/22 06:08:49;;;;;;;20.73;7.28;;;;;;;;;;6071926;23;20018;-77
2023/04/22 06:11:18;;;;;;;13.77;7.53;;;;;;;;;;6094563;23;20029;-77
2023/04/22 06:13:44;;;;;;;9.43;4.35;;;;;;;;;;6094110;23;20014;-76
2023/04/22 06:16:12;;;;;;;2.95;2.30;;;;;;;;;;6071438;23;20534;-76
2023/04/22 06:18:39;;;;;;;4.72;2.42;;;;;;;;;;6094281;23;20010;-76
2023/04/22 06:21:09;;;;;;;6.20;2.35;;;;;;;;;;6095151;23;20024;-76
2023/04/22 06:23:36;;;;;;;4.10;1.98;;;;;;;;;;6069051;23;20045;-76
2023/04/22 06:26:02;;;;;;;3.78;2.30;;;;;;;;;;6120722;23;20544;-76
2023/04/22 06:28:29;;;;;;;2.03;1.35;;;;;;;;;;6094643;23;20010;-76
2023/04/22 06:31:02;;;;;;;3.30;1.50;;;;;;;;;;6070789;23;20014;-76
2023/04/22 06:33:29;;;;;;;2.10;1.50;;;;;;;;;;6070615;23;20524;-76
2023/04/22 06:35:55;;;;;;;1.85;1.30;;;;;;;;;;6119036;23;20045;-76
2023/04/22 06:38:24;;;;;;;6.05;1.88;;;;;;;;;;6093869;23;20474;-76
2023/04/22 06:41:10;;;;;;;2.78;1.98;;;;;;;;;;6119981;23;20020;-75
2023/04/22 06:43:41;;;;;;;3.58;2.10;;;;;;;;;;6046296;23;20371;-75
2023/04/22 06:46:07;;;;;;;3.33;1.95;;;;;;;;;;6067956;23;20025;-75
2023/04/22 06:48:54;;;;;;;4.97;2.45;;;;;;;;;;6038417;23;20358;-73
2023/04/22 06:51:39;;;;;;;2.22;2.00;;;;;;;;;;6115932;23;20013;-75
2023/04/22 06:54:07;;;;;;;1.88;1.75;;;;;;;;;;6093025;23;20025;-75
2023/04/22 06:56:33;;;;;;;1.33;1.33;;;;;;;;;;6120078;23;20093;-75
2023/04/22 06:58:59;;;;;;;2.30;1.23;;;;;;;;;;6092723;23;20029;-75
2023/04/22 07:01:25;;;;;;;2.00;1.80;;;;;;;;;;6070205;23;20442;-75
2023/04/22 07:03:51;;;;;;;2.08;1.77;;;;;;;;;;6121056;23;20053;-75
2023/04/22 07:06:18;;;;;;;3.10;1.88;;;;;;;;;;6096580;23;20350;-74
2023/04/22 07:08:44;;;;;;;2.13;1.83;;;;;;;;;;6071450;23;20025;-75
2023/04/22 07:11:11;;;;;;;3.72;1.75;;;;;;;;;;6096708;23;20014;-73
2023/04/22 07:13:55;;;;;;;2.88;2.30;;;;;;;;;;6094850;23;20025;-74
2023/04/22 07:16:22;;;;;;;2.92;1.83;;;;;;;;;;6095439;23;20455;-74
2023/04/22 07:18:48;;;;;;;1.83;1.60;;;;;;;;;;6121436;23;20042;-74
2023/04/22 07:21:14;;;;;;;3.92;1.90;;;;;;;;;;6121463;23;20010;-74
2023/04/22 07:23:40;;;;;;;2.03;1.80;;;;;;;;;;6120411;23;20024;-74
2023/04/22 07:26:06;;;;;;;1.95;1.45;;;;;;;;;;6094609;23;20021;-75
2023/04/22 07:28:32;;;;;;;2.45;1.38;;;;;;;;;;6121578;23;20328;-74
2023/04/22 07:30:58;;;;;;;8.15;1.90;;;;;;;;;;6121035;23;20014;-73
2023/04/22 07:33:24;;;;;;;2.15;1.50;;;;;;;;;;6120886;23;20016;-74
2023/04/22 07:35:50;;;;;;;4.18;3.42;;;;;;;;;;6121177;23;20017;-74
2023/04/22 07:38:16;;;;;;;5.93;1.40;;;;;;;;;;6070843;23;20025;-74
2023/04/22 07:40:42;;;;;;;4.82;1.52;;;;;;;;;;6094516;23;20017;-74
2023/04/22 07:43:08;;;;;;;1.65;1.50;;;;;;;;;;6121099;23;20016;-73
2023/04/22 07:45:34;;;;;;;2.33;1.88;;;;;;;;;;6120703;23;20025;-74
2023/04/22 07:48:00;;;;;;;4.07;1.65;;;;;;;;;;6071904;23;20210;-73
2023/04/22 07:50:26;;;;;;;1.77;1.67;;;;;;;;;;6094339;23;20538;-73
2023/04/22 07:52:52;;;;;;;2.55;1.75;;;;;;;;;;6120059;23;20045;-73
2023/04/22 07:55:18;;;;;;;2.35;1.90;;;;;;;;;;6095485;23;20360;-74
2023/04/22 07:57:45;;;;;;;3.75;1.98;;;;;;;;;;6120196;23;20522;-73
2023/04/22 08:00:12;;;;;;;5.28;2.10;;;;;;;;;;6119947;23;20113;-74
2023/04/22 08:02:38;;;;;;;2.88;1.88;;;;;;;;;;6093949;23;20056;-74
2023/04/22 08:05:04;;;;;;;3.63;2.40;;;;;;;;;;6095314;23;20026;-74
2023/04/22 08:07:30;;;;;;;2.60;2.28;;;;;;;;;;6094172;23;20470;-75
2023/04/22 08:09:56;;;;;;;2.30;1.55;;;;;;;;;;6120720;23;20073;-74
2023/04/22 08:12:22;;;;;;;2.08;1.98;;;;;;;;;;6120529;23;20014;-73
2023/04/22 08:14:48;;;;;;;2.05;1.33;;;;;;;;;;6094064;23;20022;-74
2023/04/22 08:17:14;;;;;;;3.78;2.00;;;;;;;;;;6093230;23;20454;-73
2023/04/22 08:19:40;;;;;;;2.88;2.00;;;;;;;;;;6120129;23;20040;-73
2023/04/22 08:22:06;;;;;;;1.90;1.70;;;;;;;;;;6120099;23;20057;-73
2023/04/22 08:24:32;;;;;;;2.78;1.60;;;;;;;;;;6120585;23;20022;-74
2023/04/22 08:26:58;;;;;;;3.20;1.90;;;;;;;;;;6120899;23;20010;-74
2023/04/22 08:29:24;;;;;;;2.55;1.73;;;;;;;;;;6094928;23;20021;-74
2023/04/22 08:31:50;;;;;;;2.42;2.15;;;;;;;;;;6094428;23;20010;-73
2023/04/22 08:34:16;;;;;;;1.80;1.70;;;;;;;;;;6120367;23;20018;-73
2023/04/22 08:36:45;;;;;;;6.22;2.78;;;;;;;;;;6094686;23;20077;-72
2023/04/22 08:39:12;;;;;;;7.13;3.53;;;;;;;;;;6120615;23;20362;-73
2023/04/22 08:41:38;;;;;;;2.80;2.05;;;;;;;;;;6119990;23;20419;-75
2023/04/22 08:44:03;;;;;;;11.10;2.38;;;;;;;;;;6094590;23;20489;-76
2023/04/22 08:46:30;;;;;;;2.58;2.00;;;;;;;;;;6095024;23;20451;-73
2023/04/22 08:49:02;;;;;;;6.82;2.58;;;;;;;;;;6094426;23;20014;-73
2023/04/22 08:51:28;;;;;;;3.97;1.88;;;;;;;;;;6093787;23;20010;-72
2023/04/22 08:53:55;;;;;;;2.17;1.50;;;;;;;;;;6120177;23;20021;-73
2023/04/22 08:56:21;;;;;;;1.55;1.40;;;;;;;;;;6119298;23;20014;-73
2023/04/22 08:58:47;;;;;;;2.38;1.60;;;;;;;;;;6093199;23;20396;-72
2023/04/22 09:01:13;;;;;;;2.25;1.60;;;;;;;;;;6093341;23;20592;-73
2023/04/22 09:03:39;;;;;;;2.00;1.83;;;;;;;;;;6093713;23;20189;-73
2023/04/22 09:06:09;;;;;;;3.78;1.98;;;;;;;;;;6120133;23;20013;-73
2023/04/22 09:08:35;;;;;;;1.70;1.60;;;;;;;;;;6093214;23;20056;-72
2023/04/22 09:11:07;;;;;;;7.65;1.98;;;;;;;;;;6093156;23;20021;-72
2023/04/22 09:13:33;;;;;;;4.88;2.03;;;;;;;;;;6094924;23;20014;-73
2023/04/22 09:15:59;;;;;;;5.93;1.98;;;;;;;;;;6120862;23;20013;-73
2023/04/22 09:18:25;;;;;;;1.98;1.80;;;;;;;;;;6094779;23;20088;-73
2023/04/22 09:20:54;;;;;;;6.28;1.75;;;;;;;;;;6093724;23;20018;-73
2023/04/22 09:23:20;;;;;;;5.25;1.67;;;;;;;;;;6070432;23;20014;-73
2023/04/22 09:25:46;;;;;;;2.03;1.63;;;;;;;;;;6122418;23;20036;-73
2023/04/22 09:28:13;;;;;;;1.95;1.85;;;;;;;;;;6124037;23;20010;-73
2023/04/22 09:30:38;;;;;;;2.33;1.95;;;;;;;;;;6097858;23;20073;-74
2023/04/22 09:33:05;;;;;;;4.78;1.77;;;;;;;;;;6120464;23;20014;-73
2023/04/22 09:35:31;;;;;;;2.40;1.88;;;;;;;;;;6095175;23;20041;-73
2023/04/22 09:38:08;;;;;;;1.83;1.73;;;;;;;;;;6119012;23;20057;-73
2023/04/22 09:40:34;;;;;;;5.68;2.38;;;;;;;;;;6045571;23;20447;-73
2023/04/22 09:43:05;;;;;;;1.92;1.80;;;;;;;;;;6093636;23;20036;-73
2023/04/22 09:45:34;;;;;;;2.10;1.52;;;;;;;;;;6072981;23;20026;-74
2023/04/22 09:48:05;;;;;;;2.17;1.60;;;;;;;;;;6121007;23;20045;-73
2023/04/22 09:50:31;;;;;;;2.05;1.73;;;;;;;;;;6094874;23;20549;-72
2023/04/22 09:53:01;;;;;;;1.85;1.73;;;;;;;;;;6120227;23;20021;-73
2023/04/22 09:55:30;;;;;;;4.80;1.92;;;;;;;;;;6070725;23;20116;-73
2023/04/22 09:58:03;;;;;;;1.65;1.55;;;;;;;;;;6094172;23;20036;-72
2023/04/22 10:00:29;;;;;;;2.42;2.00;;;;;;;;;;6119825;23;20022;-73
2023/04/22 10:02:58;;;;;;;2.65;1.40;;;;;;;;;;6119670;23;20017;-73
2023/04/22 10:05:24;;;;;;;4.80;2.58;;;;;;;;;;6093063;23;20021;-72
2023/04/22 10:07:50;;;;;;;2.38;1.60;;;;;;;;;;6093855;23;20014;-73
2023/04/22 10:10:16;;;;;;;2.70;1.83;;;;;;;;;;6093867;23;20017;-73
2023/04/22 10:12:42;;;;;;;1.67;1.58;;;;;;;;;;6120076;23;20010;-73
2023/04/22 10:15:11;;;;;;;2.08;1.50;;;;;;;;;;6094284;23;20131;-74
2023/04/22 10:17:40;;;;;;;2.10;1.73;;;;;;;;;;6072244;23;20478;-73
2023/04/22 10:20:12;;;;;;;3.60;1.70;;;;;;;;;;6118936;23;20020;-73
2023/04/22 10:22:38;;;;;;;3.03;1.73;;;;;;;;;;6120348;23;20018;-74
2023/04/22 10:25:04;;;;;;;4.25;2.25;;;;;;;;;;6119597;23;20022;-74
2023/04/22 10:27:31;;;;;;;1.95;1.85;;;;;;;;;;6069932;23;20037;-74
2023/04/22 10:29:57;;;;;;;3.53;2.15;;;;;;;;;;6093643;23;20014;-74
2023/04/22 10:32:24;;;;;;;2.85;1.83;;;;;;;;;;6070037;23;20488;-74
2023/04/22 10:35:05;;;;;;;4.47;1.65;;;;;;;;;;6070009;23;20077;-74
2023/04/22 10:37:32;;;;;;;2.40;2.20;;;;;;;;;;6120004;23;20379;-73
2023/04/22 10:40:05;;;;;;;2.38;2.08;;;;;;;;;;6094368;23;20125;-74
2023/04/22 10:42:31;;;;;;;3.22;2.20;;;;;;;;;;6119811;23;20030;-74
2023/04/22 10:45:00;;;;;;;7.25;2.40;;;;;;;;;;6120243;23;20025;-74
2023/04/22 10:47:31;;;;;;;7.15;2.47;;;;;;;;;;6046170;23;20040;-74
2023/04/22 10:49:57;;;;;;;;;;;;;;;;;;6094754;23;20017;-75
2023/04/22 10:52:26;;;;;;;3.67;2.22;;;;;;;;;;6093273;23;20583;-74
2023/04/22 10:54:52;;;;;;;3.35;2.20;;;;;;;;;;6120120;23;20020;-74
2023/04/22 10:57:18;;;;;;;6.55;2.15;;;;;;;;;;6094362;23;20097;-74
2023/04/22 10:59:45;;;;;;;2.10;2.00;;;;;;;;;;6119144;23;20022;-74
2023/04/22 11:02:15;;;;;;;2.30;2.20;;;;;;;;;;6119504;23;20041;-74
2023/04/22 11:04:41;;;;;;;5.55;2.15;;;;;;;;;;6094334;23;20026;-74
2023/04/22 11:07:19;;;;;;;4.07;2.53;;;;;;;;;;6069716;23;20061;-73
2023/04/22 11:09:45;;;;;;;9.55;2.55;;;;;;;;;;6119736;23;20018;-73
2023/04/22 11:12:32;;;;;;;2.55;2.35;;;;;;;;;;6070243;23;20449;-73
2023/04/22 11:14:58;;;;;;;2.00;1.90;;;;;;;;;;6119374;23;20069;-73
2023/04/22 11:17:24;;;;;;;5.18;2.55;;;;;;;;;;6120125;23;20396;-74
2023/04/22 11:19:54;;;;;;;7.07;3.05;;;;;;;;;;6094571;23;20080;-74
2023/04/22 11:22:23;;;;;;;5.00;2.88;;;;;;;;;;6119997;23;20017;-74
2023/04/22 11:24:56;;;;;;;4.10;3.67;;;;;;;;;;6093664;23;20440;-74
2023/04/22 11:27:25;;;;;;;2.70;2.50;;;;;;;;;;6068883;23;20088;-74
2023/04/22 11:30:01;;;;;;;2.67;2.20;;;;;;;;;;6093483;23;20018;-74
2023/04/22 11:32:33;;;;;;;2.10;2.00;;;;;;;;;;6096729;23;20010;-74
2023/04/22 11:35:02;;;;;;;2.90;2.63;;;;;;;;;;6095184;23;20348;-73
2023/04/22 11:37:28;;;;;;;2.40;2.20;;;;;;;;;;6095390;23;20009;-73
2023/04/22 11:40:02;;;;;;;2.35;1.80;;;;;;;;;;6094637;23;20021;-74
2023/04/22 11:42:29;;;;;;;7.30;2.63;;;;;;;;;;6120663;23;20037;-73
2023/04/22 11:44:55;;;;;;;8.05;4.13;;;;;;;;;;6121254;23;20025;-74
2023/04/22 11:47:21;;;;;;;3.38;2.13;;;;;;;;;;6121359;23;20025;-74
2023/04/22 11:49:55;;;;;;;6.47;2.10;;;;;;;;;;6071351;23;20014;-73
2023/04/22 11:52:20;;;;;;;2.55;2.25;;;;;;;;;;6120907;23;20016;-73
2023/04/22 11:54:46;;;;;;;2.65;2.00;;;;;;;;;;6096063;23;20026;-73
2023/04/22 11:57:15;;;;;;;2.42;2.20;;;;;;;;;;6121392;23;20006;-74
2023/04/22 11:59:41;;;;;;;3.60;2.88;;;;;;;;;;6121576;23;20085;-73
2023/04/22 12:02:07;;;;;;;3.05;2.30;;;;;;;;;;6095258;23;20382;-74
2023/04/22 12:04:37;;;;;;;2.78;1.85;;;;;;;;;;6120716;23;20153;-74
2023/04/22 12:07:03;;;;;;;2.85;2.65;;;;;;;;;;6095158;23;20069;-73
2023/04/22 12:09:29;;;;;;;2.45;2.25;;;;;;;;;;6071474;23;20108;-74
2023/04/22 12:11:55;;;;;;;2.35;2.20;;;;;;;;;;6093682;23;20025;-74
2023/04/22 12:14:29;;;;;;;6.15;2.65;;;;;;;;;;6121475;23;20363;-74
2023/04/22 12:16:55;;;;;;;8.00;2.80;;;;;;;;;;6071738;23;20364;-73
2023/04/22 12:19:27;;;;;;;6.18;2.53;;;;;;;;;;6122014;23;20112;-74
2023/04/22 12:21:54;;;;;;;2.58;2.30;;;;;;;;;;6120633;23;20084;-73
2023/04/22 12:24:23;;;;;;;6.65;2.30;;;;;;;;;;6095675;23;20029;-74
2023/04/22 12:26:49;;;;;;;7.53;2.30;;;;;;;;;;6071103;23;20014;-74
2023/04/22 12:29:15;;;;;;;3.63;2.47;;;;;;;;;;6120322;23;20022;-73
2023/04/22 12:31:41;;;;;;;5.20;2.80;;;;;;;;;;6094177;23;20041;-74
2023/04/22 12:34:06;;;;;;;2.50;2.28;;;;;;;;;;6094502;23;20488;-73
2023/04/22 12:36:32;;;;;;;2.25;2.10;;;;;;;;;;6121069;23;20010;-74
2023/04/22 12:38:59;;;;;;;2.97;1.92;;;;;;;;;;6094600;23;20022;-74
2023/04/22 12:41:25;;;;;;;7.18;3.55;;;;;;;;;;6120142;23;20078;-73
2023/04/22 12:43:51;;;;;;;4.10;2.13;;;;;;;;;;6127162;23;20101;-73
2023/04/22 12:46:17;;;;;;;6.47;2.65;;;;;;;;;;6138623;23;20038;-74
2023/04/22 12:48:43;;;;;;;4.85;2.92;;;;;;;;;;6113668;23;20382;-73
2023/04/22 12:51:09;;;;;;;2.10;2.00;;;;;;;;;;6139824;23;20020;-73
2023/04/22 12:53:35;;;;;;;4.75;2.50;;;;;;;;;;6136832;23;20009;-73
2023/04/22 12:56:02;;;;;;;2.42;2.22;;;;;;;;;;6121618;23;20403;-72
2023/04/22 12:58:28;;;;;;;4.32;2.45;;;;;;;;;;6120639;23;20054;-72
2023/04/22 13:00:55;;;;;;;2.03;1.90;;;;;;;;;;6094720;23;20021;-73
2023/04/22 13:03:21;;;;;;;4.38;2.60;;;;;;;;;;6120415;23;20014;-73
2023/04/22 13:05:50;;;;;;;2.40;2.20;;;;;;;;;;6096158;23;20056;-72
2023/04/22 13:08:17;;;;;;;4.05;2.08;;;;;;;;;;6123437;23;20018;-73
2023/04/22 13:10:43;;;;;;;5.18;2.30;;;;;;;;;;6096548;23;20020;-72
2023/04/22 13:13:09;;;;;;;8.30;2.47;;;;;;;;;;6095337;23;20066;-73
2023/04/22 13:15:35;;;;;;;2.20;2.10;;;;;;;;;;6074388;23;20475;-73
2023/04/22 13:18:01;;;;;;;2.45;2.13;;;;;;;;;;6124669;23;20010;-73
2023/04/22 13:20:28;;;;;;;4.45;2.45;;;;;;;;;;6125263;23;20018;-73
2023/04/22 13:22:54;;;;;;;4.53;2.15;;;;;;;;;;6125319;23;20010;-73
2023/04/22 13:25:23;;;;;;;2.80;2.10;;;;;;;;;;6124902;23;20022;-72
2023/04/22 13:27:50;;;;;;;5.38;2.20;;;;;;;;;;6099243;23;20113;-73
2023/04/22 13:30:18;;;;;;;2.80;2.17;;;;;;;;;;6124295;23;20025;-73
2023/04/22 13:32:45;;;;;;;2.45;2.10;;;;;;;;;;6124897;23;20459;-73
2023/04/22 13:35:11;;;;;;;9.07;2.00;;;;;;;;;;6124005;23;20466;-73
2023/04/22 13:37:37;;;;;;;2.60;2.40;;;;;;;;;;6073311;23;20018;-73
2023/04/22 13:40:04;;;;;;;7.47;2.70;;;;;;;;;;6123091;23;20037;-72
2023/04/22 13:42:31;;;;;;;2.67;2.42;;;;;;;;;;6122697;23;20014;-73
2023/04/22 13:44:59;;;;;;;4.25;2.20;;;;;;;;;;6096923;23;20379;-73
2023/04/22 13:47:25;;;;;;;5.25;2.60;;;;;;;;;;6096475;23;20021;-73
2023/04/22 13:49:56;;;;;;;2.20;1.95;;;;;;;;;;6097731;23;20340;-72
2023/04/22 13:52:22;;;;;;;3.20;2.72;;;;;;;;;;6073061;23;20359;-73
2023/04/22 13:54:49;;;;;;;4.05;2.60;;;;;;;;;;6122412;23;20018;-73
2023/04/22 13:57:14;;;;;;;3.97;2.20;;;;;;;;;;6095678;23;20069;-72
2023/04/22 13:59:40;;;;;;;4.00;2.83;;;;;;;;;;6124860;23;20030;-72
2023/04/22 14:02:06;;;;;;;4.90;2.88;;;;;;;;;;6128779;23;20069;-73
2023/04/22 14:04:32;;;;;;;4.40;2.75;;;;;;;;;;6128602;23;20022;-74
2023/04/22 14:06:58;;;;;;;3.47;2.38;;;;;;;;;;6112192;23;20014;-73
2023/04/22 14:09:25;;;;;;;3.75;3.05;;;;;;;;;;6112339;23;20458;-73
2023/04/22 14:11:51;;;;;;;3.20;2.90;;;;;;;;;;6088510;23;20096;-72
2023/04/22 14:14:17;;;;;;;6.72;3.20;;;;;;;;;;6125124;23;20059;-73
2023/04/22 14:16:46;;;;;;;3.13;2.83;;;;;;;;;;6097525;23;20376;-72
2023/04/22 14:19:13;;;;;;;2.45;2.28;;;;;;;;;;6098112;23;20021;-73
2023/04/22 14:21:39;;;;;;;4.00;3.70;;;;;;;;;;6097356;23;20136;-73
2023/04/22 14:24:05;;;;;;;3.33;3.03;;;;;;;;;;6096720;23;20264;-73
2023/04/22 14:26:31;;;;;;;6.18;2.92;;;;;;;;;;6123815;23;20092;-73
2023/04/22 14:28:58;;;;;;;4.70;4.32;;;;;;;;;;6123394;23;20021;-73
2023/04/22 14:31:24;;;;;;;2.72;2.50;;;;;;;;;;6098827;23;20065;-73
2023/04/22 14:33:50;;;;;;;5.00;2.35;;;;;;;;;;6099855;23;20042;-73
2023/04/22 14:36:16;;;;;;;4.72;3.35;;;;;;;;;;6075291;23;20088;-73
2023/04/22 14:38:42;;;;;;;2.97;2.78;;;;;;;;;;6098305;23;20036;-73